createdAt,value
2019-02-23T00:01:14.845Z,5.10
2019-02-23T00:03:48.491Z,5.10
2019-02-23T00:06:29.931Z,5.10
2019-02-23T00:08:57.339Z,5.10
2019-02-23T00:11:32.652Z,5.10
2019-02-23T00:14:07.153Z,5.30
2019-02-23T00:16:41.603Z,5.30
2019-02-23T00:19:24.368Z,5.20
2019-02-23T00:21:51.730Z,5.10
2019-02-23T00:24:25.661Z,5.00
2019-02-23T00:27:00.279Z,4.90
2019-02-23T00:29:34.216Z,4.80
2019-02-23T00:32:09.719Z,4.80
2019-02-23T00:34:43.754Z,4.90
2019-02-23T00:37:17.366Z,4.70
2019-02-23T00:39:52.053Z,4.60
2019-02-23T00:42:25.755Z,4.70
2019-02-23T00:44:59.862Z,4.70
2019-02-23T00:47:33.272Z,4.60
2019-02-23T00:50:07.451Z,4.60
2019-02-23T00:52:41.615Z,4.60
2019-02-23T00:55:17.629Z,4.70
2019-02-23T00:57:51.265Z,4.80
2019-02-23T01:00:25.353Z,5.10
2019-02-23T01:02:59.023Z,5.20
2019-02-23T01:05:32.583Z,5.20
2019-02-23T01:08:05.980Z,5.00
2019-02-23T01:10:40.500Z,5.00
2019-02-23T01:13:18.380Z,4.90
2019-02-23T01:15:51.833Z,4.90
2019-02-23T01:18:25.690Z,4.70
2019-02-23T01:21:01.057Z,4.80
2019-02-23T01:23:35.513Z,4.80
2019-02-23T01:26:10.872Z,4.90
2019-02-23T01:28:46.375Z,4.80
2019-02-23T01:31:20.873Z,4.90
2019-02-23T01:33:54.792Z,4.80
2019-02-23T01:36:29.803Z,4.70
2019-02-23T01:39:05.611Z,4.60
2019-02-23T01:41:41.518Z,4.50
2019-02-23T01:44:15.132Z,4.30
2019-02-23T01:46:48.227Z,4.30
2019-02-23T01:49:22.133Z,4.30
2019-02-23T01:51:55.530Z,4.40
2019-02-23T01:54:29.559Z,4.50
2019-02-23T01:57:03.849Z,4.40
2019-02-23T01:59:37.798Z,4.30
2019-02-23T02:02:12.244Z,4.20
2019-02-23T02:04:46.539Z,4.30
2019-02-23T02:07:20.290Z,4.20
2019-02-23T02:09:54.424Z,4.20
2019-02-23T02:12:28.516Z,4.20
2019-02-23T02:15:02.713Z,4.20
2019-02-23T02:17:38.018Z,4.10
2019-02-23T02:20:14.817Z,4.00
2019-02-23T02:22:49.088Z,3.90
2019-02-23T02:25:23.840Z,3.80
2019-02-23T02:27:57.469Z,3.80
2019-02-23T02:30:31.579Z,3.80
2019-02-23T02:33:05.808Z,3.80
2019-02-23T02:35:39.938Z,3.70
2019-02-23T02:38:13.638Z,3.50
2019-02-23T02:40:47.581Z,3.40
2019-02-23T02:43:22.650Z,3.30
2019-02-23T02:45:56.693Z,3.40
2019-02-23T02:48:30.903Z,3.60
2019-02-23T02:51:05.617Z,3.50
2019-02-23T02:53:40.469Z,3.50
2019-02-23T02:56:14.958Z,3.50
2019-02-23T02:58:49.592Z,3.50
2019-02-23T03:01:24.310Z,3.40
2019-02-23T03:03:58.609Z,3.30
2019-02-23T03:06:32.046Z,3.20
2019-02-23T03:09:07.882Z,3.20
2019-02-23T03:11:43.305Z,3.20
2019-02-23T03:14:18.442Z,3.10
2019-02-23T03:16:53.922Z,3.00
2019-02-23T03:19:28.797Z,2.90
2019-02-23T03:22:02.864Z,2.90
2019-02-23T03:24:36.526Z,2.80
2019-02-23T03:27:12.107Z,2.70
2019-02-23T03:29:45.518Z,2.60
2019-02-23T03:32:18.976Z,2.70
2019-02-23T03:34:53.304Z,2.60
2019-02-23T03:37:26.847Z,2.60
2019-02-23T03:40:00.366Z,2.50
2019-02-23T03:42:34.972Z,2.40
2019-02-23T03:45:08.819Z,2.40
2019-02-23T03:47:42.854Z,2.30
2019-02-23T03:50:17.779Z,2.30
2019-02-23T03:52:52.955Z,2.20
2019-02-23T03:55:26.977Z,2.20
2019-02-23T03:58:00.289Z,2.20
2019-02-23T04:00:33.802Z,2.30
2019-02-23T04:03:08.711Z,2.30
2019-02-23T04:05:43.228Z,2.40
2019-02-23T04:08:17.361Z,2.30
2019-02-23T04:10:50.985Z,2.30
2019-02-23T04:13:25.666Z,2.30
2019-02-23T04:16:00.271Z,2.30
2019-02-23T04:18:33.894Z,2.30
2019-02-23T04:21:08.593Z,2.10
2019-02-23T04:23:42.674Z,2.00
2019-02-23T04:26:19.664Z,2.00
2019-02-23T04:28:53.857Z,1.80
2019-02-23T04:31:28.756Z,1.80
2019-02-23T04:34:03.289Z,1.70
2019-02-23T04:36:36.890Z,1.70
2019-02-23T04:39:11.614Z,1.70
2019-02-23T04:41:46.011Z,1.60
2019-02-23T04:44:19.566Z,1.60
2019-02-23T04:46:54.094Z,1.50
2019-02-23T04:49:30.992Z,1.50
2019-02-23T04:52:04.529Z,1.40
2019-02-23T04:54:42.756Z,1.40
2019-02-23T04:57:15.935Z,1.40
2019-02-23T04:59:50.141Z,1.40
2019-02-23T05:02:24.610Z,1.40
2019-02-23T05:04:58.185Z,1.50
2019-02-23T05:07:33.205Z,1.40
2019-02-23T05:10:07.397Z,1.50
2019-02-23T05:12:41.265Z,1.40
2019-02-23T05:15:15.996Z,1.40
2019-02-23T05:17:49.766Z,1.30
2019-02-23T05:20:23.340Z,1.20
2019-02-23T05:22:57.169Z,1.30
2019-02-23T05:25:31.625Z,1.20
2019-02-23T05:28:05.133Z,1.20
2019-02-23T05:30:38.737Z,1.10
2019-02-23T05:33:13.801Z,1.10
2019-02-23T05:35:48.424Z,1.00
2019-02-23T05:38:24.072Z,1.00
2019-02-23T05:40:58.019Z,1.00
2019-02-23T05:43:34.716Z,1.00
2019-02-23T05:46:07.933Z,0.90
2019-02-23T05:48:44.588Z,0.90
2019-02-23T05:51:18.798Z,0.90
2019-02-23T05:53:53.551Z,0.90
2019-02-23T05:56:29.727Z,0.80
2019-02-23T05:59:03.605Z,0.80
2019-02-23T06:01:38.363Z,0.80
2019-02-23T06:04:12.561Z,0.80
2019-02-23T06:06:46.881Z,0.80
2019-02-23T06:09:20.141Z,0.70
2019-02-23T06:11:56.764Z,0.60
2019-02-23T06:14:31.596Z,0.50
2019-02-23T06:17:05.164Z,0.50
2019-02-23T06:19:39.943Z,0.50
2019-02-23T06:22:14.213Z,0.50
2019-02-23T06:24:47.737Z,0.50
2019-02-23T06:27:25.198Z,0.50
2019-02-23T06:30:01.490Z,0.40
2019-02-23T06:32:39.127Z,0.40
2019-02-23T06:35:12.286Z,0.40
2019-02-23T06:37:47.839Z,0.40
2019-02-23T06:40:20.792Z,0.40
2019-02-23T06:42:54.018Z,0.40
2019-02-23T06:45:26.742Z,0.40
2019-02-23T06:47:59.498Z,0.50
2019-02-23T06:50:31.528Z,0.50
2019-02-23T06:53:05.464Z,0.50
2019-02-23T06:55:39.001Z,0.50
2019-02-23T06:58:11.381Z,0.50
2019-02-23T07:00:43.773Z,0.60
2019-02-23T07:03:18.188Z,0.70
2019-02-23T07:05:50.954Z,0.90
2019-02-23T07:08:22.990Z,1.00
2019-02-23T07:11:00.871Z,1.10
2019-02-23T07:13:36.625Z,1.20
2019-02-23T07:16:10.032Z,1.30
2019-02-23T07:18:44.148Z,1.40
2019-02-23T07:21:18.141Z,1.40
2019-02-23T07:23:51.631Z,1.40
2019-02-23T07:26:25.956Z,1.40
2019-02-23T07:28:59.483Z,1.30
2019-02-23T07:31:33.357Z,1.40
2019-02-23T07:34:07.894Z,1.40
2019-02-23T07:36:42.055Z,1.40
2019-02-23T07:39:15.918Z,1.40
2019-02-23T07:41:48.856Z,1.50
2019-02-23T07:44:24.686Z,1.60
2019-02-23T07:46:58.882Z,1.70
2019-02-23T07:49:33.712Z,1.70
2019-02-23T07:52:07.184Z,1.80
2019-02-23T07:54:40.420Z,1.90
2019-02-23T07:57:13.136Z,2.10
2019-02-23T07:59:45.063Z,2.20
2019-02-23T08:02:17.833Z,2.40
2019-02-23T08:04:50.496Z,2.50
2019-02-23T08:07:24.160Z,2.70
2019-02-23T08:09:57.730Z,2.80
2019-02-23T08:12:31.583Z,2.80
2019-02-23T08:15:03.842Z,3.00
2019-02-23T08:17:38.071Z,3.00
2019-02-23T08:20:10.394Z,3.10
2019-02-23T08:22:43.234Z,3.20
2019-02-23T08:25:20.224Z,3.30
2019-02-23T08:27:56.220Z,3.40
2019-02-23T08:30:32.294Z,3.60
2019-02-23T08:33:07.398Z,3.70
2019-02-23T08:35:42.553Z,3.80
2019-02-23T08:38:17.322Z,3.90
2019-02-23T08:40:53.172Z,4.10
2019-02-23T08:43:29.493Z,4.20
2019-02-23T08:46:04.336Z,4.30
2019-02-23T08:48:39.979Z,4.40
2019-02-23T08:51:16.133Z,4.50
2019-02-23T08:53:51.920Z,4.60
2019-02-23T08:56:30.940Z,4.70
2019-02-23T08:59:04.684Z,4.70
2019-02-23T09:01:39.399Z,4.90
2019-02-23T09:04:25.623Z,5.00
2019-02-23T09:06:58.888Z,5.00
2019-02-23T09:09:32.451Z,5.10
2019-02-23T09:12:06.658Z,5.20
2019-02-23T09:14:40.455Z,5.20
2019-02-23T09:17:13.778Z,5.40
2019-02-23T09:19:47.985Z,5.50
2019-02-23T09:22:21.778Z,5.50
2019-02-23T09:24:56.426Z,5.70
2019-02-23T09:27:30.358Z,5.80
2019-02-23T09:30:04.598Z,5.90
2019-02-23T09:32:40.009Z,6.00
2019-02-23T09:35:14.957Z,6.00
2019-02-23T09:37:51.249Z,6.20
2019-02-23T09:40:24.820Z,6.20
2019-02-23T09:43:00.051Z,6.30
2019-02-23T09:45:35.367Z,6.40
2019-02-23T09:48:09.294Z,6.50
2019-02-23T09:50:42.975Z,6.70
2019-02-23T09:53:18.795Z,6.90
2019-02-23T09:55:53.510Z,7.00
2019-02-23T09:58:31.865Z,7.10
2019-02-23T10:01:09.578Z,7.20
2019-02-23T10:03:44.530Z,7.30
2019-02-23T10:06:18.172Z,7.40
2019-02-23T10:08:51.636Z,7.50
2019-02-23T10:11:24.929Z,7.60
2019-02-23T10:13:59.343Z,7.70
2019-02-23T10:16:34.525Z,7.80
2019-02-23T10:19:08.770Z,8.00
2019-02-23T10:21:43.305Z,8.10
2019-02-23T10:24:17.855Z,8.20
2019-02-23T10:26:52.898Z,8.30
2019-02-23T10:29:26.948Z,8.40
2019-02-23T10:32:01.205Z,8.60
2019-02-23T10:34:35.850Z,8.70
2019-02-23T10:37:10.029Z,8.80
2019-02-23T10:39:43.288Z,8.80
2019-02-23T10:42:17.091Z,8.90
2019-02-23T10:44:53.353Z,9.20
2019-02-23T10:47:27.681Z,9.50
2019-02-23T10:50:01.645Z,10.00
2019-02-23T10:52:35.778Z,10.50
2019-02-23T10:55:10.725Z,10.90
2019-02-23T10:57:44.901Z,11.10
2019-02-23T11:00:21.889Z,11.70
2019-02-23T11:02:53.400Z,12.60
2019-02-23T11:05:24.335Z,13.80
2019-02-23T11:07:55.327Z,14.70
2019-02-23T11:10:26.675Z,15.70
2019-02-23T11:12:58.091Z,16.30
2019-02-23T11:15:29.728Z,16.80
2019-02-23T11:18:03.010Z,17.00
2019-02-23T11:20:36.052Z,17.20
2019-02-23T11:23:08.836Z,17.40
2019-02-23T11:25:40.571Z,17.50
2019-02-23T11:28:12.353Z,18.10
2019-02-23T11:30:43.723Z,18.30
2019-02-23T11:33:14.912Z,18.50
2019-02-23T11:35:46.420Z,18.80
2019-02-23T11:38:17.835Z,19.00
2019-02-23T11:40:49.385Z,18.20
2019-02-23T11:43:20.940Z,17.00
2019-02-23T11:45:52.375Z,16.20
2019-02-23T11:48:23.241Z,16.10
2019-02-23T11:50:54.592Z,16.40
2019-02-23T11:53:25.737Z,16.70
2019-02-23T11:55:56.777Z,17.40
2019-02-23T11:58:27.795Z,17.20
2019-02-23T12:00:58.737Z,17.20
2019-02-23T12:03:31.327Z,17.70
2019-02-23T12:06:04.286Z,17.90
2019-02-23T12:08:35.364Z,18.10
2019-02-23T12:11:06.984Z,18.30
2019-02-23T12:13:38.086Z,18.60
2019-02-23T12:16:14.984Z,18.30
2019-02-23T12:18:46.377Z,18.10
2019-02-23T12:21:17.534Z,18.20
2019-02-23T12:23:48.960Z,18.20
2019-02-23T12:26:19.822Z,18.40
2019-02-23T12:28:51.003Z,18.30
2019-02-23T12:31:22.381Z,18.30
2019-02-23T12:33:54.928Z,18.20
2019-02-23T12:36:25.657Z,18.00
2019-02-23T12:38:57.365Z,18.10
2019-02-23T12:41:28.739Z,18.60
2019-02-23T12:44:00.801Z,19.10
2019-02-23T12:46:32.029Z,19.10
2019-02-23T12:49:03.467Z,18.90
2019-02-23T12:51:34.585Z,19.10
2019-02-23T12:54:16.355Z,19.10
2019-02-23T12:56:38.388Z,19.40
2019-02-23T12:59:09.877Z,20.40
2019-02-23T13:01:40.735Z,20.80
2019-02-23T13:04:12.167Z,20.90
2019-02-23T13:06:43.295Z,21.30
2019-02-23T13:09:17.390Z,21.90
2019-02-23T13:11:59.354Z,22.70
2019-02-23T13:14:46.128Z,22.80
2019-02-23T13:18:06.343Z,22.60
2019-02-23T13:21:15.373Z,22.00
2019-02-23T13:24:13.460Z,21.40
2019-02-23T13:27:12.871Z,21.30
2019-02-23T13:30:15.756Z,21.50
2019-02-23T13:33:42.960Z,22.00
2019-02-23T13:36:36.692Z,22.00
2019-02-23T13:40:04.156Z,20.60
2019-02-23T13:43:21.945Z,19.80
2019-02-23T13:46:26.880Z,19.80
2019-02-23T13:49:29.091Z,20.00
2019-02-23T13:52:27.812Z,19.70
2019-02-23T13:55:22.949Z,19.90
2019-02-23T13:58:08.881Z,20.40
2019-02-23T14:01:22.665Z,21.00
2019-02-23T14:04:35.214Z,21.80
2019-02-23T14:07:55.739Z,22.50
2019-02-23T14:10:39.956Z,23.40
2019-02-23T14:13:41.930Z,24.00
2019-02-23T14:16:36.002Z,24.30
2019-02-23T14:19:16.709Z,24.00
2019-02-23T14:22:15.177Z,23.70
2019-02-23T14:25:14.783Z,24.00
2019-02-23T14:28:40.364Z,24.30
2019-02-23T14:31:41.318Z,24.10
2019-02-23T14:34:58.614Z,23.80
2019-02-23T14:38:15.986Z,23.30
2019-02-23T14:40:58.426Z,22.90
2019-02-23T14:44:00.727Z,23.80
2019-02-23T14:47:13.121Z,24.30
2019-02-23T14:50:16.037Z,24.80
2019-02-23T14:53:23.769Z,25.10
2019-02-23T14:56:32.684Z,24.80
2019-02-23T14:59:38.053Z,24.30
2019-02-23T15:02:56.337Z,23.80
2019-02-23T15:06:12.049Z,24.10
2019-02-23T15:09:07.849Z,24.10
2019-02-23T15:12:13.422Z,24.50
2019-02-23T15:15:20.876Z,24.10
2019-02-23T15:18:25.134Z,23.60
2019-02-23T15:21:10.252Z,22.90
2019-02-23T15:24:35.174Z,22.40
2019-02-23T15:27:57.200Z,22.00
2019-02-23T15:30:56.029Z,21.90
2019-02-23T15:34:27.068Z,21.40
2019-02-23T15:37:13.406Z,20.90
2019-02-23T15:40:16.533Z,20.50
2019-02-23T15:43:09.803Z,20.10
2019-02-23T15:46:20.754Z,19.40
2019-02-23T15:49:31.860Z,19.00
2019-02-23T15:52:08.718Z,18.50
2019-02-23T15:54:39.744Z,17.70
2019-02-23T15:57:12.002Z,16.90
2019-02-23T15:59:44.533Z,16.30
2019-02-23T16:02:15.035Z,15.70
2019-02-23T16:04:47.830Z,15.10
2019-02-23T16:07:19.024Z,14.70
2019-02-23T16:09:50.240Z,14.30
2019-02-23T16:12:21.113Z,14.10
2019-02-23T16:14:52.437Z,13.90
2019-02-23T16:17:24.079Z,13.80
2019-02-23T16:19:56.177Z,13.70
2019-02-23T16:22:29.251Z,13.60
2019-02-23T16:25:02.518Z,13.30
2019-02-23T16:27:42.220Z,13.10
2019-02-23T16:30:15.758Z,12.90
2019-02-23T16:32:48.751Z,12.70
2019-02-23T16:35:22.799Z,12.50
2019-02-23T16:38:15.486Z,12.30
2019-02-23T16:40:44.550Z,12.20
2019-02-23T16:43:15.934Z,12.00
2019-02-23T16:46:07.629Z,11.90
2019-02-23T16:48:39.367Z,11.70
2019-02-23T16:51:11.060Z,11.60
2019-02-23T16:53:43.047Z,11.40
2019-02-23T16:56:14.402Z,11.40
2019-02-23T16:58:46.149Z,11.40
2019-02-23T17:01:17.444Z,11.30
2019-02-23T17:03:49.243Z,11.20
2019-02-23T17:06:20.693Z,10.90
2019-02-23T17:08:55.092Z,10.90
2019-02-23T17:11:26.182Z,10.90
2019-02-23T17:13:58.705Z,10.60
2019-02-23T17:16:31.859Z,10.40
2019-02-23T17:19:03.482Z,10.20
2019-02-23T17:21:34.780Z,10.00
2019-02-23T17:24:10.531Z,9.80
2019-02-23T17:26:42.308Z,9.60
2019-02-23T17:29:15.508Z,9.40
2019-02-23T17:31:46.916Z,9.20
2019-02-23T17:34:17.609Z,9.00
2019-02-23T17:36:49.979Z,9.00
2019-02-23T17:39:21.984Z,8.90
2019-02-23T17:41:54.295Z,8.70
2019-02-23T17:44:26.510Z,8.50
2019-02-23T17:47:00.695Z,8.50
2019-02-23T17:49:37.182Z,8.40
2019-02-23T17:52:08.833Z,8.30
2019-02-23T17:54:41.357Z,8.10
2019-02-23T17:57:13.822Z,8.00
2019-02-23T17:59:47.295Z,7.90
2019-02-23T18:02:20.357Z,7.90
2019-02-23T18:04:53.054Z,7.80
2019-02-23T18:07:28.058Z,7.80
2019-02-23T18:10:02.288Z,7.60
2019-02-23T18:12:37.426Z,7.60
2019-02-23T18:15:13.330Z,7.70
2019-02-23T18:17:47.310Z,7.60
2019-02-23T18:20:21.577Z,7.40
2019-02-23T18:22:55.307Z,7.20
2019-02-23T18:25:29.451Z,7.10
2019-02-23T18:28:03.943Z,7.00
2019-02-23T18:30:39.137Z,6.90
2019-02-23T18:33:11.766Z,6.80
2019-02-23T18:35:44.359Z,6.60
2019-02-23T18:38:19.756Z,6.40
2019-02-23T18:40:52.652Z,6.20
2019-02-23T18:43:25.416Z,6.00
2019-02-23T18:45:58.273Z,5.90
2019-02-23T18:48:30.997Z,5.70
2019-02-23T18:51:03.944Z,5.50
2019-02-23T18:53:37.760Z,5.40
2019-02-23T18:56:10.350Z,5.20
2019-02-23T18:58:43.212Z,5.10
2019-02-23T19:01:16.213Z,5.00
2019-02-23T19:03:48.769Z,4.90
2019-02-23T19:06:21.693Z,4.80
2019-02-23T19:08:56.124Z,4.60
2019-02-23T19:11:29.831Z,4.50
2019-02-23T19:14:04.118Z,4.40
2019-02-23T19:16:37.298Z,4.30
2019-02-23T19:19:12.478Z,4.20
2019-02-23T19:21:47.409Z,4.10
2019-02-23T19:24:20.256Z,4.00
2019-02-23T19:26:53.474Z,3.90
2019-02-23T19:29:26.950Z,3.90
2019-02-23T19:31:59.916Z,3.80
2019-02-23T19:34:33.565Z,3.80
2019-02-23T19:37:07.064Z,3.80
2019-02-23T19:39:42.795Z,3.70
2019-02-23T19:42:19.463Z,3.70
2019-02-23T19:44:52.125Z,3.60
2019-02-23T19:47:28.183Z,3.70
2019-02-23T19:50:06.568Z,3.80
2019-02-23T19:52:42.999Z,4.10
2019-02-23T19:55:16.719Z,4.20
2019-02-23T19:57:50.583Z,4.50
2019-02-23T20:00:25.614Z,4.90
2019-02-23T20:02:58.650Z,5.10
2019-02-23T20:05:31.879Z,5.30
2019-02-23T20:08:05.811Z,5.40
2019-02-23T20:10:40.870Z,5.30
2019-02-23T20:13:13.710Z,5.40
2019-02-23T20:15:47.046Z,5.50
2019-02-23T20:18:19.686Z,5.50
2019-02-23T20:20:52.569Z,5.40
2019-02-23T20:23:26.509Z,5.40
2019-02-23T20:26:00.282Z,5.30
2019-02-23T20:28:33.814Z,5.20
2019-02-23T20:31:06.514Z,5.20
2019-02-23T20:33:39.547Z,5.10
2019-02-23T20:36:12.966Z,5.10
2019-02-23T20:38:46.850Z,4.90
2019-02-23T20:41:20.420Z,4.80
2019-02-23T20:43:55.276Z,4.70
2019-02-23T20:46:28.384Z,4.70
2019-02-23T20:49:01.327Z,4.70
2019-02-23T20:51:37.393Z,4.60
2019-02-23T20:54:10.255Z,4.50
2019-02-23T20:56:44.788Z,4.40
2019-02-23T20:59:18.717Z,4.40
2019-02-23T21:01:53.509Z,4.40
2019-02-23T21:04:30.410Z,4.30
2019-02-23T21:07:03.927Z,4.30
2019-02-23T21:09:42.083Z,4.30
2019-02-23T21:12:16.887Z,4.40
2019-02-23T21:14:52.991Z,4.40
2019-02-23T21:17:25.789Z,4.40
2019-02-23T21:19:59.054Z,4.40
2019-02-23T21:22:31.439Z,4.30
2019-02-23T21:25:03.443Z,4.30
2019-02-23T21:27:36.061Z,4.30
2019-02-23T21:30:08.506Z,4.30
2019-02-23T21:32:43.914Z,4.40
2019-02-23T21:35:17.055Z,4.70
2019-02-23T21:37:51.043Z,4.80
2019-02-23T21:40:27.111Z,4.80
2019-02-23T21:42:59.580Z,4.90
2019-02-23T21:45:33.073Z,5.10
2019-02-23T21:48:06.608Z,5.20
2019-02-23T21:50:38.712Z,5.30
2019-02-23T21:53:11.775Z,5.50
2019-02-23T21:55:45.174Z,5.60
2019-02-23T21:58:20.195Z,5.50
2019-02-23T22:00:54.119Z,5.50
2019-02-23T22:03:26.824Z,5.60
2019-02-23T22:06:04.660Z,5.60
2019-02-23T22:08:37.176Z,5.60
2019-02-23T22:11:09.820Z,5.50
2019-02-23T22:13:42.546Z,5.60
2019-02-23T22:16:15.597Z,5.70
2019-02-23T22:18:50.534Z,5.70
2019-02-23T22:21:22.632Z,5.70
2019-02-23T22:23:55.146Z,5.70
2019-02-23T22:26:28.710Z,5.70
2019-02-23T22:29:01.649Z,5.60
2019-02-23T22:31:34.096Z,5.60
2019-02-23T22:34:06.677Z,5.70
2019-02-23T22:36:39.802Z,5.70
2019-02-23T22:39:12.065Z,5.70
2019-02-23T22:41:49.617Z,5.60
2019-02-23T22:44:22.491Z,5.60
2019-02-23T22:46:54.702Z,5.60
2019-02-23T22:49:26.714Z,5.50
2019-02-23T22:52:00.975Z,5.50
2019-02-23T22:54:33.085Z,5.60
2019-02-23T22:57:05.495Z,5.50
2019-02-23T22:59:38.920Z,5.50
2019-02-23T23:02:11.857Z,5.50
2019-02-23T23:04:44.290Z,5.40
2019-02-23T23:07:18.119Z,5.30
2019-02-23T23:09:50.580Z,5.30
2019-02-23T23:12:26.329Z,5.30
2019-02-23T23:14:58.869Z,5.40
2019-02-23T23:17:31.027Z,5.50
2019-02-23T23:20:03.786Z,5.50
2019-02-23T23:22:38.458Z,5.40
2019-02-23T23:25:12.754Z,5.40
2019-02-23T23:27:49.211Z,5.20
2019-02-23T23:30:21.293Z,5.20
2019-02-23T23:32:55.394Z,5.10
2019-02-23T23:35:29.480Z,5.00
2019-02-23T23:38:05.396Z,5.00
2019-02-23T23:40:40.402Z,5.00
2019-02-23T23:43:15.189Z,4.90
2019-02-23T23:45:49.089Z,4.80
2019-02-23T23:48:25.254Z,5.00
2019-02-23T23:51:00.941Z,4.90
2019-02-23T23:53:34.934Z,4.90
2019-02-23T23:56:09.339Z,4.80
2019-02-23T23:58:43.367Z,4.70
